Time;durP1;ratioP1;P1;durP2;ratioP2;P2;SDS_P1;SDS_P2;PMS_P1;PMS_P2;Temp;Humidity;BMP_temperature;BMP_pressure;BME280_temperature;BME280_humidity;BME280_pressure;Samples;Min_cycle;Max_cycle;Signal;HPM_P1;HPM_P2
2022/12/08 00:01:15;;;;;;;;;34.75;32.50;;;;;8.00;100.00;101210.41;5096703;27;45542;-72
2022/12/08 00:03:41;;;;;;;;;30.75;24.00;;;;;8.01;100.00;101212.19;5095315;27;45437;-71
2022/12/08 00:09:37;;;;;;;;;39.75;32.75;;;;;8.01;100.00;101202.56;5093397;27;45503;-71
2022/12/08 00:12:08;;;;;;;;;35.75;32.50;;;;;8.01;100.00;101189.41;5098536;27;45285;-70
2022/12/08 00:14:36;;;;;;;;;37.75;33.00;;;;;7.96;100.00;101172.63;5097843;27;45413;-70
2022/12/08 00:17:02;;;;;;;;;38.00;29.25;;;;;7.97;100.00;101173.50;5095327;27;47613;-70
2022/12/08 00:19:28;;;;;;;;;37.50;30.75;;;;;7.91;100.00;101166.34;5097379;27;45303;-71
2022/12/08 00:21:53;;;;;;;;;50.75;35.25;;;;;7.85;100.00;101164.44;5098847;27;46236;-71
2022/12/08 00:24:20;;;;;;;;;38.00;32.00;;;;;7.89;100.00;101181.19;5098603;27;45500;-70
2022/12/08 00:26:46;;;;;;;;;41.25;30.00;;;;;7.82;100.00;101160.81;5095380;27;47806;-70
2022/12/08 00:29:12;;;;;;;;;43.75;32.50;;;;;7.69;100.00;101163.97;5093519;27;45492;-71
2022/12/08 00:31:37;;;;;;;;;32.25;28.25;;;;;7.82;100.00;101172.22;5098782;27;45340;-70
2022/12/08 00:34:03;;;;;;;;;42.75;31.75;;;;;7.75;100.00;101158.88;5095370;27;45527;-72
2022/12/08 00:36:29;;;;;;;;;32.00;23.25;;;;;7.79;100.00;101166.03;5095103;27;46757;-71
2022/12/08 00:38:55;;;;;;;;;31.75;27.25;;;;;7.83;100.00;101165.25;5098101;27;45389;-70
2022/12/08 00:44:07;;;;;;;;;35.75;33.50;;;;;7.87;100.00;101160.09;5098371;27;45357;-72
2022/12/08 00:46:32;;;;;;;;;38.50;29.75;;;;;7.91;100.00;101162.81;5094132;27;45866;-70
2022/12/08 00:48:57;;;;;;;;;36.00;29.50;;;;;7.86;100.00;101155.69;5098011;27;45293;-70
2022/12/08 00:51:23;;;;;;;;;44.50;36.50;;;;;7.91;100.00;101150.56;5097924;27;52638;-69
2022/12/08 00:53:48;;;;;;;;;43.00;37.00;;;;;7.90;100.00;101145.28;5097440;27;49338;-72
2022/12/08 00:56:13;;;;;;;;;37.75;31.25;;;;;7.89;100.00;101152.28;5097195;27;56674;-70
2022/12/08 00:58:39;;;;;;;;;40.00;35.00;;;;;7.84;100.00;101141.63;5097038;27;45662;-71
2022/12/08 01:01:09;;;;;;;;;42.75;34.50;;;;;7.80;100.00;101141.50;5098464;27;45264;-70
2022/12/08 01:03:35;;;;;;;;;38.75;30.25;;;;;7.77;100.00;101133.53;5096680;27;45434;-71
2022/12/08 01:06:02;;;;;;;;;48.50;36.75;;;;;7.73;100.00;101132.56;5092373;27;61822;-72
2022/12/08 01:08:28;;;;;;;;;47.25;34.25;;;;;7.73;100.00;101136.94;5097757;27;45317;-71
2022/12/08 01:10:53;;;;;;;;;39.25;32.50;;;;;7.69;100.00;101138.59;5094830;27;57984;-70
2022/12/08 01:13:18;;;;;;;;;50.50;37.75;;;;;7.65;100.00;101138.47;5097573;27;51432;-71
2022/12/08 01:15:44;;;;;;;;;44.00;34.25;;;;;7.54;100.00;101118.03;5113310;27;59754;-70
2022/12/08 01:18:09;;;;;;;;;40.50;34.50;;;;;7.50;100.00;101115.25;5096812;27;56431;-70
2022/12/08 01:20:34;;;;;;;;;42.25;33.50;;;;;7.49;100.00;101121.38;5096230;27;54968;-70
2022/12/08 01:23:00;;;;;;;;;45.00;36.25;;;;;7.43;100.00;101121.19;5097031;27;51864;-70
2022/12/08 01:25:25;;;;;;;;;45.75;36.25;;;;;7.39;100.00;101122.84;5097910;27;45385;-72
2022/12/08 01:27:51;;;;;;;;;47.25;40.00;;;;;7.33;100.00;101123.56;5097159;27;46266;-70
2022/12/08 01:30:17;;;;;;;;;36.00;21.00;;;;;7.28;100.00;101114.66;5094680;27;45405;-70
2022/12/08 01:32:42;;;;;;;;;34.25;24.75;;;;;7.19;100.00;101108.25;5099581;27;45333;-70
2022/12/08 01:35:08;;;;;;;;;42.25;32.50;;;;;7.14;100.00;101108.13;5097362;27;45534;-71
2022/12/08 01:37:33;;;;;;;;;45.75;34.75;;;;;7.10;100.00;101098.38;5097060;27;45487;-70
2022/12/08 01:39:58;;;;;;;;;49.00;39.00;;;;;7.12;100.00;101109.81;5096211;27;50337;-70
2022/12/08 01:42:24;;;;;;;;;48.00;37.00;;;;;7.14;100.00;101102.88;5097446;27;52293;-71
2022/12/08 01:44:56;;;;;;;;;49.50;38.00;;;;;7.18;100.00;101111.72;5094870;27;45594;-70
2022/12/08 01:47:26;;;;;;;;;51.75;39.25;;;;;7.16;100.00;101095.03;5096699;27;45418;-69
2022/12/08 01:49:52;;;;;;;;;52.50;41.75;;;;;7.19;100.00;101108.25;5092871;27;45248;-72
2022/12/08 01:52:33;;;;;;;;;51.25;40.50;;;;;7.24;100.00;101106.63;5095016;27;56205;-70
2022/12/08 01:55:05;;;;;;;;;55.75;42.75;;;;;7.22;100.00;101100.47;5091596;27;45671;-70
2022/12/08 01:57:38;;;;;;;;;58.50;44.75;;;;;7.26;100.00;101107.59;5095900;27;46154;-70
2022/12/08 02:00:13;;;;;;;;;46.00;36.25;;;;;7.27;100.00;101106.75;5096925;27;45449;-70
2022/12/08 02:02:47;;;;;;;;;47.00;35.25;;;;;7.32;100.00;101115.66;5097111;27;45592;-71
2022/12/08 02:05:13;;;;;;;;;50.50;39.25;;;;;7.27;100.00;101102.38;5095701;27;45644;-69
2022/12/08 02:07:38;;;;;;;;;54.00;41.75;;;;;7.35;100.00;101105.25;5096182;27;60297;-71
2022/12/08 02:10:04;;;;;;;;;47.50;37.50;;;;;7.33;100.00;101099.03;5096696;27;56040;-70
2022/12/08 02:12:30;;;;;;;;;56.75;41.50;;;;;7.31;100.00;101093.75;5096530;27;45489;-71
2022/12/08 02:14:55;;;;;;;;;58.50;40.00;;;;;7.37;100.00;101107.91;5096088;27;62400;-70
2022/12/08 02:17:31;;;;;;;;;52.25;37.50;;;;;7.39;100.00;101108.81;5096761;27;46340;-71
2022/12/08 02:20:26;;;;;;;;;44.50;36.00;;;;;7.41;100.00;101115.03;5095653;27;45388;-70
2022/12/08 02:22:54;;;;;;;;;53.00;36.75;;;;;7.43;100.00;101105.44;5096058;27;45145;-69
2022/12/08 02:25:30;;;;;;;;;43.50;38.00;;;;;7.43;100.00;101106.31;5097085;27;45882;-72
2022/12/08 02:28:19;;;;;;;;;42.75;38.75;;;;;7.46;100.00;101103.81;5093954;27;45394;-71
2022/12/08 02:31:06;;;;;;;;;43.00;39.00;;;;;7.48;100.00;101109.09;5095992;27;45361;-72
2022/12/08 02:33:52;;;;;;;;;48.00;38.00;;;;;7.49;100.00;101108.22;5091158;27;45599;-71
2022/12/08 02:36:26;;;;;;;;;30.50;26.50;;;;;7.50;100.00;101097.75;5095347;27;45685;-71
2022/12/08 02:39:08;;;;;;;;;45.75;36.00;;;;;7.52;100.00;101100.44;5095299;27;45298;-71
2022/12/08 02:41:55;;;;;;;;;51.00;35.25;;;;;7.49;100.00;101097.72;5088847;27;45524;-72
2022/12/08 02:44:50;;;;;;;;;46.50;37.00;;;;;7.45;100.00;101094.09;5093963;27;45626;-71
2022/12/08 02:47:18;;;;;;;;;39.25;32.75;;;;;7.44;100.00;101081.81;5095100;27;46221;-72
2022/12/08 02:49:43;;;;;;;;;45.00;36.50;;;;;7.50;100.00;101092.50;5096661;27;45428;-71
2022/12/08 02:52:09;;;;;;;;;53.50;38.50;;;;;7.50;100.00;101092.50;5092194;27;46839;-70
2022/12/08 02:54:35;;;;;;;;;40.75;35.50;;;;;7.52;100.00;101077.69;5096489;27;45299;-72
2022/12/08 02:57:09;;;;;;;;;48.00;38.75;;;;;7.51;100.00;101078.53;5093769;27;46857;-71
2022/12/08 02:59:46;;;;;;;;;54.00;33.75;;;;;7.49;100.00;101068.81;5092721;27;45374;-71
2022/12/08 03:02:25;;;;;;;;;40.50;33.50;;;;;7.52;100.00;101071.56;5096261;27;45438;-71
2022/12/08 03:05:17;;;;;;;;;44.50;34.75;;;;;7.52;100.00;101079.44;5095826;27;45610;-71
2022/12/08 03:07:57;;;;;;;;;34.00;29.25;;;;;7.48;100.00;101070.56;5073119;27;45399;-71
2022/12/08 03:10:42;;;;;;;;;43.50;31.00;;;;;7.40;100.00;101058.94;5091685;27;45309;-73
2022/12/08 03:13:21;;;;;;;;;38.25;30.75;;;;;7.39;100.00;101061.53;5096294;27;45502;-71
2022/12/08 03:15:49;;;;;;;;;49.00;30.50;;;;;7.41;100.00;101062.50;5094733;27;45468;-71
2022/12/08 03:18:16;;;;;;;;;43.00;35.75;;;;;7.42;100.00;101059.00;5094357;27;46491;-73
2022/12/08 03:20:44;;;;;;;;;47.75;33.00;;;;;7.43;100.00;101058.16;5096379;27;45246;-71
2022/12/08 03:23:11;;;;;;;;;45.75;28.50;;;;;7.41;100.00;101057.22;5090402;27;45543;-71
2022/12/08 03:25:42;;;;;;;;;54.50;33.50;;;;;7.34;100.00;101038.66;5094549;27;45530;-71
2022/12/08 03:28:07;;;;;;;;;44.75;34.25;;;;;7.37;100.00;101042.22;5095569;27;45518;-71
2022/12/08 03:30:36;;;;;;;;;42.50;30.75;;;;;7.39;100.00;101045.78;5094271;27;58499;-71
2022/12/08 03:33:22;;;;;;;;;36.00;27.25;;;;;7.37;100.00;101043.13;5093902;27;45458;-71
2022/12/08 03:35:48;;;;;;;;;48.25;27.25;;;;;7.35;100.00;101037.81;5094012;27;45484;-71
2022/12/08 03:38:15;;;;;;;;;47.75;30.50;;;;;7.34;100.00;101033.41;5093405;27;62067;-71
2022/12/08 03:40:41;;;;;;;;;42.00;25.00;;;;;7.41;100.00;101047.63;5094676;27;46414;-71
2022/12/08 03:43:06;;;;;;;;;32.25;25.75;;;;;7.40;100.00;101024.78;5095603;27;45503;-70
2022/12/08 03:45:32;;;;;;;;;57.25;34.00;;;;;7.42;100.00;101003.84;5098178;27;45687;-71
2022/12/08 03:47:57;;;;;;;;;32.00;28.00;;;;;7.48;100.00;101028.53;5098184;27;60908;-72
2022/12/08 03:50:23;;;;;;;;;46.75;32.50;;;;;7.49;100.00;101026.78;5095772;27;57694;-71
2022/12/08 03:52:49;;;;;;;;;42.00;30.50;;;;;7.40;100.00;101005.50;5098157;27;45714;-70
2022/12/08 03:55:14;;;;;;;;;36.50;28.75;;;;;7.47;100.00;101015.38;5098108;27;56569;-72
2022/12/08 03:57:40;;;;;;;;;45.50;30.25;;;;;7.48;100.00;101004.00;5098796;27;46522;-71
2022/12/08 04:00:08;;;;;;;;;42.25;28.75;;;;;7.47;100.00;101011.00;5098659;27;45691;-73
2022/12/08 04:02:34;;;;;;;;;41.50;29.25;;;;;7.44;100.00;101007.38;5092071;27;45567;-70
2022/12/08 04:04:59;;;;;;;;;30.50;24.50;;;;;7.49;100.00;101011.03;5097142;27;54090;-73
2022/12/08 04:07:24;;;;;;;;;36.00;29.25;;;;;7.44;100.00;100997.75;5097908;27;55060;-71
2022/12/08 04:09:50;;;;;;;;;40.75;29.25;;;;;7.44;100.00;100995.13;5098213;27;45350;-71
2022/12/08 04:12:15;;;;;;;;;38.50;27.75;;;;;7.48;100.00;101010.13;5098264;27;53817;-69
2022/12/08 04:14:40;;;;;;;;;39.25;25.75;;;;;7.45;100.00;100993.41;5097560;27;53099;-71
2022/12/08 04:17:06;;;;;;;;;38.25;27.50;;;;;7.49;100.00;101001.41;5098446;27;60662;-71
2022/12/08 04:19:31;;;;;;;;;44.50;26.75;;;;;7.46;100.00;100984.69;5098311;27;46552;-71
2022/12/08 04:21:56;;;;;;;;;37.50;24.25;;;;;7.52;100.00;100993.63;5097873;27;56985;-71
2022/12/08 04:24:22;;;;;;;;;36.00;26.75;;;;;7.45;100.00;100981.16;5097437;27;50408;-71
2022/12/08 04:26:48;;;;;;;;;30.75;24.50;;;;;7.53;100.00;100991.88;5098392;27;45406;-71
2022/12/08 04:29:14;;;;;;;;;32.75;25.00;;;;;7.52;100.00;100990.97;5098877;27;45416;-71
2022/12/08 04:31:39;;;;;;;;;36.25;29.25;;;;;7.52;100.00;100982.22;5098825;27;46804;-71
2022/12/08 04:34:05;;;;;;;;;29.00;19.75;;;;;7.49;100.00;100979.50;5098045;27;45477;-71
2022/12/08 04:36:30;;;;;;;;;40.75;26.50;;;;;7.44;100.00;100974.13;5098492;27;60875;-72
2022/12/08 04:38:55;;;;;;;;;37.00;30.00;;;;;7.41;100.00;100960.03;5099060;27;45842;-71
2022/12/08 04:41:21;;;;;;;;;34.25;27.00;;;;;7.43;100.00;100976.72;5113138;27;54715;-71
2022/12/08 04:43:46;;;;;;;;;31.00;23.25;;;;;7.38;100.00;100963.47;5098407;27;48152;-70
2022/12/08 04:46:11;;;;;;;;;39.25;27.75;;;;;7.43;100.00;100971.47;5097112;27;58074;-71
2022/12/08 04:48:38;;;;;;;;;37.75;29.25;;;;;7.35;100.00;100963.41;5097688;27;57068;-71
2022/12/08 04:51:04;;;;;;;;;33.25;23.75;;;;;7.38;100.00;100965.19;5098669;27;45149;-71
2022/12/08 04:53:29;;;;;;;;;30.25;29.00;;;;;7.34;100.00;100957.22;5098834;27;45502;-72
2022/12/08 04:55:54;;;;;;;;;37.75;25.50;;;;;7.30;100.00;100954.50;5097034;27;59642;-73
2022/12/08 04:58:20;;;;;;;;;32.25;25.25;;;;;7.34;100.00;100965.09;5098603;27;45382;-73
2022/12/08 05:00:46;;;;;;;;;36.75;25.25;;;;;7.32;100.00;100963.31;5097961;27;45730;-73
2022/12/08 05:03:12;;;;;;;;;27.00;18.75;;;;;7.26;100.00;100964.03;5099260;27;45262;-72
2022/12/08 05:05:38;;;;;;;;;33.25;24.25;;;;;7.25;100.00;100961.38;5097080;27;46714;-72
2022/12/08 05:08:03;;;;;;;;;20.50;18.25;;;;;7.22;100.00;100954.28;5096468;27;45425;-72
2022/12/08 05:10:29;;;;;;;;;29.75;24.25;;;;;7.16;100.00;100954.13;5097678;27;45464;-72
2022/12/08 05:12:54;;;;;;;;;32.00;23.75;;;;;7.20;100.00;100969.13;5098080;27;45272;-71
2022/12/08 05:15:19;;;;;;;;;39.00;28.50;;;;;7.14;100.00;100952.28;5097206;27;59546;-72
2022/12/08 05:17:45;;;;;;;;;24.50;20.50;;;;;7.14;100.00;100958.47;5096628;27;45405;-71
2022/12/08 05:20:10;;;;;;;;;23.50;20.00;;;;;7.12;100.00;100957.50;5097454;27;52820;-71
2022/12/08 05:22:36;;;;;;;;;10.25;7.00;;;;;7.09;100.00;100962.69;5097835;27;45371;-71
2022/12/08 05:25:01;;;;;;;;;30.25;22.25;;;;;7.09;100.00;100952.19;5097123;27;47119;-72
2022/12/08 05:27:26;;;;;;;;;23.25;19.00;;;;;7.06;100.00;100966.13;5097168;27;45390;-71
2022/12/08 05:29:52;;;;;;;;;25.00;16.75;;;;;6.98;100.00;100948.41;5096975;27;45252;-71
2022/12/08 05:32:17;;;;;;;;;22.25;17.75;;;;;6.97;100.00;100946.59;5095392;27;49624;-72
2022/12/08 05:34:43;;;;;;;;;27.75;19.75;;;;;6.95;100.00;100946.56;5096909;27;45646;-71
2022/12/08 05:37:08;;;;;;;;;24.00;17.25;;;;;6.95;100.00;100948.28;5083517;27;45382;-71
2022/12/08 05:39:33;;;;;;;;;21.50;17.00;;;;;6.87;100.00;100949.81;5096874;27;46052;-71
2022/12/08 05:41:59;;;;;;;;;25.50;17.75;;;;;6.88;100.00;100952.50;5100008;27;54179;-71
2022/12/08 05:44:25;;;;;;;;;27.50;21.50;;;;;6.89;100.00;100959.53;5094979;27;63149;-71
2022/12/08 05:46:50;;;;;;;;;31.75;21.50;;;;;6.80;100.00;100946.13;5095679;27;45563;-71
2022/12/08 05:49:15;;;;;;;;;22.75;19.50;;;;;6.79;100.00;100946.97;5092397;27;50539;-71
2022/12/08 05:51:41;;;;;;;;;20.00;18.25;;;;;6.83;100.00;100954.09;5094790;27;52546;-71
2022/12/08 05:54:06;;;;;;;;;20.25;14.50;;;;;6.85;100.00;100962.00;5086426;27;45584;-71
2022/12/08 05:56:32;;;;;;;;;21.00;17.75;;;;;6.83;100.00;100955.00;5084074;27;46174;-71
2022/12/08 05:58:57;;;;;;;;;25.00;16.25;;;;;6.78;100.00;100945.22;5081017;27;51236;-70
2022/12/08 06:01:26;;;;;;;;;17.75;13.75;;;;;6.77;100.00;100954.81;5094612;27;55317;-72
2022/12/08 06:03:52;;;;;;;;;20.75;15.00;;;;;6.79;100.00;100958.38;5093478;27;47404;-73
2022/12/08 06:06:18;;;;;;;;;21.75;14.25;;;;;6.79;100.00;100950.50;5094908;27;45361;-72
2022/12/08 06:08:43;;;;;;;;;16.25;12.25;;;;;6.78;100.00;100946.09;5089710;27;45469;-70
2022/12/08 06:11:09;;;;;;;;;21.75;16.50;;;;;6.84;100.00;100950.63;5094985;27;51329;-71
2022/12/08 06:13:34;;;;;;;;;15.25;13.50;;;;;6.83;100.00;100933.09;5092364;27;46642;-71
2022/12/08 06:16:05;;;;;;;;;16.75;11.75;;;;;6.83;100.00;100928.75;5095396;27;45361;-71
2022/12/08 06:18:30;;;;;;;;;16.25;14.00;;;;;6.86;100.00;100929.66;5095037;27;45480;-71
2022/12/08 06:21:06;;;;;;;;;17.00;13.25;;;;;6.90;100.00;100934.16;5096440;27;45406;-72
2022/12/08 06:23:32;;;;;;;;;19.50;17.00;;;;;6.87;100.00;100923.56;5086669;27;46162;-72
2022/12/08 06:26:02;;;;;;;;;17.00;14.25;;;;;6.87;100.00;100918.31;5089379;27;45479;-70
2022/12/08 06:28:29;;;;;;;;;18.00;14.00;;;;;6.94;100.00;100912.41;5088411;27;45538;-70
2022/12/08 06:30:54;;;;;;;;;17.75;15.00;;;;;7.01;100.00;100922.22;5086512;27;45501;-71
2022/12/08 06:33:19;;;;;;;;;23.25;15.00;;;;;7.02;100.00;100927.50;5093253;27;45433;-70
2022/12/08 06:35:45;;;;;;;;;22.75;18.00;;;;;7.01;100.00;100917.84;5089645;27;60331;-72
2022/12/08 06:38:10;;;;;;;;;17.50;14.00;;;;;7.06;100.00;100917.97;5090766;27;54414;-70
2022/12/08 06:40:35;;;;;;;;;16.50;15.50;;;;;7.07;100.00;100910.13;5099766;27;45854;-70
2022/12/08 06:43:01;;;;;;;;;16.75;14.50;;;;;7.07;100.00;100909.25;5090409;27;58980;-70
2022/12/08 06:45:26;;;;;;;;;19.00;15.75;;;;;7.10;100.00;100904.09;5084981;27;45539;-73
2022/12/08 06:47:51;;;;;;;;;23.25;15.25;;;;;7.12;100.00;100909.38;5090855;27;53791;-71
2022/12/08 06:50:17;;;;;;;;;14.00;13.75;;;;;7.12;100.00;100906.75;5094568;27;51659;-72
2022/12/08 06:52:44;;;;;;;;;14.75;12.25;;;;;7.17;100.00;100918.25;5084971;27;46437;-71
2022/12/08 06:55:10;;;;;;;;;14.75;14.00;;;;;7.14;100.00;100913.81;5086666;27;45422;-70
2022/12/08 06:57:35;;;;;;;;;19.50;14.75;;;;;7.17;100.00;100915.63;5085905;27;45626;-71
2022/12/08 07:00:01;;;;;;;;;15.25;13.25;;;;;7.16;100.00;100905.97;5084430;27;45471;-71
2022/12/08 07:02:26;;;;;;;;;12.50;11.75;;;;;7.17;100.00;100902.50;5083529;27;47204;-73
2022/12/08 07:04:52;;;;;;;;;15.75;11.00;;;;;7.13;100.00;100906.78;5092509;27;60400;-71
2022/12/08 07:07:17;;;;;;;;;21.00;13.50;;;;;7.17;100.00;100913.88;5094188;27;45672;-72
2022/12/08 07:09:42;;;;;;;;;19.00;15.50;;;;;7.11;100.00;100897.09;5094056;27;48743;-71
2022/12/08 07:12:08;;;;;;;;;21.00;13.50;;;;;7.13;100.00;100900.63;5088374;27;46312;-73
2022/12/08 07:14:33;;;;;;;;;16.25;13.25;;;;;7.15;100.00;100915.59;5092061;27;58344;-71
2022/12/08 07:16:58;;;;;;;;;11.25;10.00;;;;;7.11;100.00;100904.97;5094508;27;45506;-71
2022/12/08 07:19:24;;;;;;;;;15.25;12.00;;;;;7.16;100.00;100916.47;5097604;27;46179;-71
2022/12/08 07:21:49;;;;;;;;;22.00;15.00;;;;;7.16;100.00;100908.59;5098296;27;46958;-71
2022/12/08 07:24:15;;;;;;;;;15.25;13.25;;;;;7.16;100.00;100904.25;5096399;27;55349;-73
2022/12/08 07:26:40;;;;;;;;;14.25;9.50;;;;;7.16;100.00;100900.72;5099186;27;45419;-71
2022/12/08 07:29:06;;;;;;;;;22.00;13.75;;;;;7.12;100.00;100897.13;5096133;27;45416;-71
2022/12/08 07:31:31;;;;;;;;;18.50;13.00;;;;;7.16;100.00;100912.13;5097019;27;46351;-71
2022/12/08 07:33:57;;;;;;;;;17.25;15.25;;;;;7.18;100.00;100906.91;5089445;27;45461;-71
2022/12/08 07:36:23;;;;;;;;;15.25;11.00;;;;;7.17;100.00;100913.88;5088476;27;45585;-71
2022/12/08 07:38:49;;;;;;;;;18.75;18.25;;;;;7.15;100.00;100909.47;5099022;27;45454;-71
2022/12/08 07:41:17;;;;;;;;;19.00;15.75;;;;;7.20;100.00;100907.84;5099792;27;46550;-71
2022/12/08 07:43:43;;;;;;;;;18.00;15.00;;;;;7.18;100.00;100912.16;5097495;27;45422;-71
2022/12/08 07:46:13;;;;;;;;;19.25;15.00;;;;;7.22;100.00;100914.91;5097572;27;45400;-72
2022/12/08 07:48:38;;;;;;;;;23.00;15.00;;;;;7.24;100.00;100920.19;5098967;27;45392;-72
2022/12/08 07:51:04;;;;;;;;;17.25;13.00;;;;;7.29;100.00;100910.69;5098322;27;46525;-71
2022/12/08 07:53:30;;;;;;;;;18.25;14.00;;;;;7.23;100.00;100906.16;5098146;27;45222;-73
2022/12/08 07:55:56;;;;;;;;;15.50;14.50;;;;;7.26;100.00;100908.00;5099287;27;45429;-71
2022/12/08 07:58:22;;;;;;;;;19.50;14.50;;;;;7.31;100.00;100902.00;5097894;27;45576;-72
2022/12/08 08:00:47;;;;;;;;;18.50;14.00;;;;;7.29;100.00;100905.44;5098281;27;46476;-73
2022/12/08 08:03:12;;;;;;;;;15.00;14.00;;;;;7.31;100.00;100899.38;5098316;27;57774;-71
2022/12/08 08:05:38;;;;;;;;;19.25;15.25;;;;;7.32;100.00;100901.16;5098961;27;48699;-71
2022/12/08 08:08:03;;;;;;;;;16.00;14.25;;;;;7.35;100.00;100892.47;5098887;27;52242;-72
2022/12/08 08:10:29;;;;;;;;;26.75;17.50;;;;;7.38;100.00;100889.91;5097999;27;47342;-72
2022/12/08 08:12:58;;;;;;;;;22.25;16.00;;;;;7.42;100.00;100893.50;5098905;27;45244;-71
2022/12/08 08:15:24;;;;;;;;;10.50;10.00;;;;;7.36;100.00;100891.63;5099316;27;45334;-73
2022/12/08 08:17:50;;;;;;;;;18.50;17.25;;;;;7.35;100.00;100872.34;5099494;27;45275;-71
2022/12/08 08:20:16;;;;;;;;;27.00;15.50;;;;;7.41;100.00;100891.75;5098446;27;47396;-71
2022/12/08 08:22:41;;;;;;;;;18.50;15.50;;;;;7.41;100.00;100887.38;5098845;27;45475;-72
2022/12/08 08:25:07;;;;;;;;;19.75;18.00;;;;;7.43;100.00;100890.03;5098426;27;53154;-72
2022/12/08 08:27:32;;;;;;;;;24.00;14.50;;;;;7.40;100.00;100875.06;5098719;27;45498;-72
2022/12/08 08:29:58;;;;;;;;;21.50;17.00;;;;;7.45;100.00;100889.19;5097917;27;46459;-72
2022/12/08 08:32:23;;;;;;;;;26.25;15.75;;;;;7.44;100.00;100887.44;5093212;27;45150;-73
2022/12/08 08:34:50;;;;;;;;;18.50;14.25;;;;;7.45;100.00;100893.56;5096941;27;45366;-73
2022/12/08 08:37:15;;;;;;;;;15.00;15.00;;;;;7.44;100.00;100879.53;5095051;27;45376;-71
2022/12/08 08:39:41;;;;;;;;;22.50;13.00;;;;;7.42;100.00;100880.38;5098450;27;45970;-73
2022/12/08 08:42:07;;;;;;;;;19.25;19.25;;;;;7.49;100.00;100880.53;5099012;27;45423;-71
2022/12/08 08:44:32;;;;;;;;;21.25;17.75;;;;;7.53;100.00;100878.91;5098132;27;45532;-71
2022/12/08 08:46:58;;;;;;;;;25.25;19.00;;;;;7.54;100.00;100868.41;5093478;27;45243;-71
2022/12/08 08:49:23;;;;;;;;;20.50;18.00;;;;;7.60;100.00;100872.91;5096097;27;62241;-71
2022/12/08 08:51:49;;;;;;;;;28.00;22.50;;;;;7.60;100.00;100865.91;5098378;27;46532;-74
2022/12/08 08:54:14;;;;;;;;;22.75;17.75;;;;;7.61;100.00;100856.28;5098420;27;45508;-71
2022/12/08 08:56:39;;;;;;;;;23.25;18.75;;;;;7.65;100.00;100867.78;5098019;27;45492;-71
2022/12/08 08:59:05;;;;;;;;;19.50;16.75;;;;;7.65;100.00;100858.16;5098818;27;45854;-71
2022/12/08 09:01:30;;;;;;;;;24.75;18.25;;;;;7.65;100.00;100858.16;5096469;27;45491;-73
2022/12/08 09:03:56;;;;;;;;;24.25;16.00;;;;;7.68;100.00;100866.13;5096328;27;45273;-71
2022/12/08 09:06:22;;;;;;;;;27.00;19.75;;;;;7.71;100.00;100863.53;5096461;27;45256;-73
2022/12/08 09:08:48;;;;;;;;;25.75;17.00;;;;;7.68;100.00;100858.25;5098114;27;45435;-72
2022/12/08 09:11:14;;;;;;;;;18.50;14.00;;;;;7.71;100.00;100855.66;5090062;27;45314;-71
2022/12/08 09:13:39;;;;;;;;;20.25;19.00;;;;;7.70;100.00;100856.53;5098314;27;45607;-71
2022/12/08 09:16:06;;;;;;;;;12.75;11.00;;;;;7.73;100.00;100863.59;5094434;27;52754;-71
2022/12/08 09:18:32;;;;;;;;;27.25;16.00;;;;;7.78;100.00;100867.22;5097771;27;46583;-71
2022/12/08 09:21:10;;;;;;;;;23.75;18.25;;;;;7.76;100.00;100869.78;5098129;27;45441;-74
2022/12/08 09:23:35;;;;;;;;;23.50;19.50;;;;;7.77;100.00;100863.69;5097551;27;45461;-73
2022/12/08 09:26:02;;;;;;;;;22.75;13.75;;;;;7.83;100.00;100868.22;5098551;27;45561;-72
2022/12/08 09:28:27;;;;;;;;;24.00;18.50;;;;;7.81;100.00;100868.16;5080917;27;46336;-72
2022/12/08 09:30:53;;;;;;;;;16.50;12.25;;;;;7.87;100.00;100870.03;5095294;27;45422;-71
2022/12/08 09:33:18;;;;;;;;;24.00;17.25;;;;;7.87;100.00;100865.66;5097756;27;50468;-72
2022/12/08 09:35:43;;;;;;;;;19.75;15.25;;;;;7.90;100.00;100859.59;5096246;27;45254;-72
2022/12/08 09:38:09;;;;;;;;;23.25;17.50;;;;;7.91;100.00;100852.59;5097241;27;62696;-72
2022/12/08 09:40:41;;;;;;;;;21.75;19.25;;;;;7.92;100.00;100859.63;5093491;27;61653;-73
2022/12/08 09:43:18;;;;;;;;;18.75;15.75;;;;;7.94;100.00;100856.19;5097417;27;45266;-72
2022/12/08 09:45:44;;;;;;;;;24.50;18.75;;;;;7.91;100.00;100853.50;5096391;27;45446;-71
2022/12/08 09:48:23;;;;;;;;;24.75;19.50;;;;;7.97;100.00;100863.25;5096631;27;46226;-71
2022/12/08 09:50:55;;;;;;;;;21.25;17.75;;;;;7.96;100.00;100854.47;5096087;27;45455;-72
2022/12/08 09:53:35;;;;;;;;;25.75;17.50;;;;;8.00;100.00;100863.31;5097035;27;45440;-72
2022/12/08 09:56:05;;;;;;;;;25.25;18.00;;;;;7.94;100.00;100836.91;5096109;27;47063;-71
2022/12/08 09:58:50;;;;;;;;;24.75;15.25;;;;;8.03;100.00;100851.13;5095208;27;45584;-72
2022/12/08 10:01:16;;;;;;;;;24.50;18.75;;;;;8.04;100.00;100844.09;5097365;27;45582;-72
2022/12/08 10:03:42;;;;;;;;;24.00;19.75;;;;;8.11;100.00;100841.66;5094966;27;45481;-72
2022/12/08 10:06:29;;;;;;;;;13.75;9.25;;;;;8.15;100.00;100845.25;5095818;27;45569;-71
2022/12/08 10:09:00;;;;;;;;;21.75;16.25;;;;;8.17;100.00;100835.63;5097401;27;47552;-73
2022/12/08 10:11:55;;;;;;;;;20.00;14.75;;;;;8.13;100.00;100824.16;5097335;27;45324;-71
2022/12/08 10:14:39;;;;;;;;;22.25;19.25;;;;;8.19;100.00;100835.66;5107839;27;45406;-71
2022/12/08 10:17:21;;;;;;;;;18.25;15.00;;;;;8.17;100.00;100833.00;5097527;27;45393;-71
2022/12/08 10:19:47;;;;;;;;;19.75;18.00;;;;;8.18;100.00;100824.25;5095032;27;46131;-72
2022/12/08 10:22:25;;;;;;;;;23.75;19.50;;;;;8.22;100.00;100823.47;5096702;27;45337;-73
2022/12/08 10:25:00;;;;;;;;;18.75;12.50;;;;;8.25;100.00;100834.03;5096871;27;45441;-71
2022/12/08 10:27:26;;;;;;;;;17.75;14.50;;;;;8.22;100.00;100828.72;5095257;27;45420;-71
2022/12/08 10:29:51;;;;;;;;;16.50;13.50;;;;;8.20;100.00;100825.16;5093987;27;45442;-73
2022/12/08 10:32:20;;;;;;;;;24.00;16.00;;;;;8.11;100.00;100818.00;5092084;27;45450;-71
2022/12/08 10:34:58;;;;;;;;;25.75;20.00;;;;;8.14;100.00;100817.16;5095178;27;45198;-71
2022/12/08 10:37:23;;;;;;;;;16.75;16.00;;;;;8.06;100.00;100797.72;5093182;27;45314;-71
2022/12/08 10:40:00;;;;;;;;;27.75;17.00;;;;;8.04;100.00;100799.41;5095736;27;55873;-73
2022/12/08 10:42:33;;;;;;;;;23.25;17.25;;;;;8.07;100.00;100802.13;5095670;27;45385;-72
2022/12/08 10:44:58;;;;;;;;;21.00;16.25;;;;;8.02;100.00;100801.13;5096271;27;45526;-72
2022/12/08 10:47:28;;;;;;;;;21.50;18.00;;;;;7.95;100.00;100794.88;5091645;27;45323;-73
2022/12/08 10:50:41;;;;;;;;;16.00;11.00;;;;;7.94;100.00;100789.59;5095458;27;45663;-72
2022/12/08 10:53:07;;;;;;;;;22.00;16.75;;;;;7.93;100.00;100793.94;5086092;27;45642;-71
2022/12/08 10:55:39;;;;;;;;;24.75;19.75;;;;;7.88;100.00;100793.84;5096251;27;45438;-73
2022/12/08 10:58:32;;;;;;;;;24.75;18.75;;;;;7.92;100.00;100791.28;5111322;27;45507;-74
2022/12/08 11:01:20;;;;;;;;;19.25;13.50;;;;;7.95;100.00;100780.84;5106435;27;46401;-71
2022/12/08 11:03:51;;;;;;;;;26.75;19.50;;;;;7.97;100.00;100773.84;5095934;27;45464;-72
2022/12/08 11:06:38;;;;;;;;;23.25;18.50;;;;;8.00;100.00;100772.19;5094725;27;45560;-72
2022/12/08 11:09:26;;;;;;;;;19.75;17.00;;;;;8.07;100.00;100767.94;5095891;27;45667;-72
2022/12/08 11:11:54;;;;;;;;;23.00;16.00;;;;;8.10;100.00;100760.13;5084778;27;47402;-73
2022/12/08 11:14:42;;;;;;;;;19.00;17.25;;;;;8.21;100.00;100765.59;5093745;27;45557;-72
2022/12/08 11:17:13;;;;;;;;;20.75;18.50;;;;;8.21;100.00;100748.06;5096224;27;45393;-72
2022/12/08 11:20:00;;;;;;;;;21.50;15.50;;;;;8.28;100.00;100749.94;5091305;27;45192;-71
2022/12/08 11:22:29;;;;;;;;;21.50;20.50;;;;;8.30;100.00;100752.59;5095317;27;47583;-71